createdAt,value
2023-03-26T00:01:15.818Z,11.32
2023-03-26T00:04:22.045Z,12.32
2023-03-26T00:07:28.310Z,12.60
2023-03-26T00:10:33.852Z,12.35
2023-03-26T00:13:40.996Z,11.77
2023-03-26T00:16:47.868Z,12.55
2023-03-26T00:19:53.831Z,13.18
2023-03-26T00:23:02.137Z,12.20
2023-03-26T00:26:11.422Z,12.93
2023-03-26T00:29:17.297Z,12.60
2023-03-26T00:32:28.369Z,13.38
2023-03-26T00:35:37.407Z,12.50
2023-03-26T00:38:44.268Z,13.45
2023-03-26T00:41:54.843Z,12.77
2023-03-26T00:45:00.709Z,13.45
2023-03-26T00:48:06.247Z,12.45
2023-03-26T00:51:15.630Z,13.32
2023-03-26T00:54:21.649Z,13.48
2023-03-26T00:57:35.841Z,14.13
2023-03-26T01:00:57.720Z,13.48
2023-03-26T01:04:28.601Z,13.32
2023-03-26T01:07:35.462Z,14.32
2023-03-26T01:10:42.932Z,14.18
2023-03-26T01:13:56.665Z,15.05
2023-03-26T01:17:04.643Z,13.60
2023-03-26T01:20:20.578Z,14.20
2023-03-26T01:23:35.645Z,14.57
2023-03-26T01:26:59.510Z,13.05
2023-03-26T01:30:17.349Z,13.38
2023-03-26T01:33:34.399Z,14.88
2023-03-26T01:36:49.206Z,14.18
2023-03-26T01:39:58.451Z,14.98
2023-03-26T01:43:29.052Z,16.20
2023-03-26T01:46:38.483Z,14.82
2023-03-26T01:49:45.412Z,15.07
2023-03-26T01:52:51.020Z,15.52
2023-03-26T01:56:29.646Z,15.82
2023-03-26T01:59:47.961Z,16.15
2023-03-26T02:03:04.696Z,16.50
2023-03-26T02:06:37.909Z,15.77
2023-03-26T02:09:48.433Z,16.38
2023-03-26T02:12:54.565Z,16.70
2023-03-26T02:16:03.270Z,15.63
2023-03-26T02:19:16.117Z,14.40
2023-03-26T02:22:22.594Z,15.07
2023-03-26T02:25:28.625Z,16.10
2023-03-26T02:28:37.842Z,14.88
2023-03-26T02:31:43.635Z,15.38
2023-03-26T02:34:51.595Z,14.95
2023-03-26T02:37:57.574Z,13.98
2023-03-26T02:41:03.575Z,14.35
2023-03-26T02:44:23.698Z,13.82
2023-03-26T02:47:37.903Z,13.82
2023-03-26T02:51:04.631Z,14.00
2023-03-26T02:54:37.570Z,13.45
2023-03-26T02:58:03.831Z,14.07
2023-03-26T03:01:18.715Z,14.68
2023-03-26T03:04:32.588Z,14.45
2023-03-26T03:07:38.934Z,15.68
2023-03-26T03:11:03.637Z,13.90
2023-03-26T03:14:17.354Z,14.80
2023-03-26T03:17:22.842Z,13.88
2023-03-26T03:20:30.631Z,14.50
2023-03-26T03:23:36.745Z,14.75
2023-03-26T03:26:50.584Z,14.88
2023-03-26T03:30:12.871Z,14.10
2023-03-26T03:33:24.324Z,13.63
2023-03-26T03:36:30.658Z,13.18
2023-03-26T03:39:43.330Z,13.43
2023-03-26T03:42:51.248Z,12.20
2023-03-26T03:46:06.366Z,12.48
2023-03-26T03:49:41.650Z,12.90
2023-03-26T03:52:47.037Z,12.07
2023-03-26T03:55:58.026Z,11.80
2023-03-26T03:59:17.868Z,12.27
2023-03-26T04:02:30.637Z,12.65
2023-03-26T04:05:40.902Z,12.98
2023-03-26T04:08:47.004Z,13.02
2023-03-26T04:11:52.652Z,13.20
2023-03-26T04:15:24.214Z,12.70
2023-03-26T04:18:32.725Z,12.75
2023-03-26T04:21:45.490Z,14.38
2023-03-26T04:24:54.739Z,12.90
2023-03-26T04:28:06.948Z,13.20
2023-03-26T04:31:31.528Z,12.37
2023-03-26T04:34:39.097Z,12.63
2023-03-26T04:37:49.089Z,13.77
2023-03-26T04:41:12.855Z,14.88
2023-03-26T04:44:44.864Z,13.25
2023-03-26T04:47:52.307Z,15.35
2023-03-26T04:50:58.378Z,14.60
2023-03-26T04:54:03.474Z,14.77
2023-03-26T04:57:27.568Z,16.00
2023-03-26T05:00:43.622Z,16.48
2023-03-26T05:03:49.021Z,15.25
2023-03-26T05:06:59.794Z,16.00
2023-03-26T05:10:22.164Z,16.50
2023-03-26T05:13:35.773Z,19.13
2023-03-26T05:16:48.328Z,18.92
2023-03-26T05:19:53.968Z,17.45
2023-03-26T05:22:59.474Z,17.25
2023-03-26T05:26:10.302Z,16.83
2023-03-26T05:29:18.029Z,16.23
2023-03-26T05:32:31.458Z,18.17
2023-03-26T05:35:37.048Z,16.85
2023-03-26T05:38:49.974Z,17.75
2023-03-26T05:42:22.112Z,17.98
2023-03-26T05:45:41.463Z,17.42
2023-03-26T05:48:55.869Z,17.27
2023-03-26T05:52:01.562Z,19.55
2023-03-26T05:55:25.955Z,18.73
2023-03-26T05:59:01.397Z,21.63
2023-03-26T06:02:07.571Z,21.90
2023-03-26T06:05:37.753Z,21.05
2023-03-26T06:09:02.031Z,21.00
2023-03-26T06:12:11.149Z,20.02
2023-03-26T06:15:18.156Z,20.35
2023-03-26T06:18:56.358Z,20.33
2023-03-26T06:22:23.141Z,18.85
2023-03-26T06:25:50.056Z,20.05
2023-03-26T06:29:18.890Z,19.85
2023-03-26T06:32:40.642Z,19.70
2023-03-26T06:35:54.087Z,19.90
2023-03-26T06:38:59.492Z,18.20
2023-03-26T06:42:04.969Z,19.27
2023-03-26T06:45:40.084Z,17.70
2023-03-26T06:49:04.259Z,16.88
2023-03-26T06:52:32.108Z,15.75
2023-03-26T06:56:13.416Z,16.10
2023-03-26T06:59:28.446Z,14.02
2023-03-26T07:02:52.971Z,14.77
2023-03-26T07:06:17.504Z,14.05
2023-03-26T07:09:41.424Z,13.63
2023-03-26T07:13:05.584Z,12.48
2023-03-26T07:16:29.991Z,12.63
2023-03-26T07:19:46.930Z,11.77
2023-03-26T07:22:52.716Z,11.40
2023-03-26T07:26:49.204Z,10.75
2023-03-26T07:30:19.616Z,9.98
2023-03-26T07:33:48.970Z,9.90
2023-03-26T07:37:27.186Z,10.90
2023-03-26T07:41:03.284Z,10.45
2023-03-26T07:44:41.973Z,10.63
2023-03-26T07:48:20.464Z,9.77
2023-03-26T07:51:49.022Z,9.18
2023-03-26T07:55:16.272Z,10.10
2023-03-26T07:59:20.695Z,9.20
2023-03-26T08:02:56.843Z,10.13
2023-03-26T08:06:34.670Z,9.18
2023-03-26T08:10:23.854Z,11.02
2023-03-26T08:14:16.558Z,11.48
2023-03-26T08:17:38.248Z,10.27
2023-03-26T08:20:50.536Z,9.38
2023-03-26T08:24:19.112Z,9.73
2023-03-26T08:28:02.722Z,7.45
2023-03-26T08:31:12.055Z,7.05
2023-03-26T08:34:35.608Z,6.15
2023-03-26T08:37:41.515Z,6.78
2023-03-26T08:41:12.396Z,6.53
2023-03-26T08:44:35.692Z,6.25
2023-03-26T08:48:19.220Z,6.95
2023-03-26T08:51:50.900Z,6.95
2023-03-26T08:55:10.807Z,5.60
2023-03-26T08:58:38.284Z,7.43
2023-03-26T09:01:59.189Z,6.15
2023-03-26T09:05:31.494Z,6.20
2023-03-26T09:08:54.152Z,6.32
2023-03-26T09:12:33.789Z,7.22
2023-03-26T09:16:15.574Z,6.60
2023-03-26T09:23:06.354Z,13.83
2023-03-26T09:26:28.275Z,7.85
2023-03-26T09:29:52.166Z,7.75
2023-03-26T09:33:21.984Z,7.13
2023-03-26T09:36:50.233Z,5.53
2023-03-26T09:40:14.551Z,6.10
2023-03-26T09:43:41.616Z,5.20
2023-03-26T09:46:52.953Z,4.40
2023-03-26T09:50:16.461Z,5.15
2023-03-26T09:53:40.672Z,4.57
2023-03-26T09:57:13.055Z,3.83
2023-03-26T10:00:17.893Z,4.90
2023-03-26T10:03:59.951Z,4.88
2023-03-26T10:07:30.621Z,5.90
2023-03-26T10:11:02.415Z,5.28
2023-03-26T10:14:17.970Z,5.68
2023-03-26T10:18:00.993Z,4.75
2023-03-26T10:21:33.936Z,5.43
2023-03-26T10:24:57.765Z,4.53
2023-03-26T10:28:49.529Z,4.95
2023-03-26T10:32:22.617Z,4.57
2023-03-26T10:36:00.124Z,5.32
2023-03-26T10:39:36.019Z,4.97
2023-03-26T10:42:55.260Z,5.35
2023-03-26T10:46:22.446Z,4.93
2023-03-26T10:49:40.249Z,4.95
2023-03-26T10:53:41.712Z,6.07
2023-03-26T10:56:51.797Z,6.18
2023-03-26T11:00:15.983Z,5.90
2023-03-26T11:03:44.199Z,6.55
2023-03-26T11:07:16.799Z,6.82
2023-03-26T11:10:55.683Z,5.85
2023-03-26T11:14:34.197Z,6.53
2023-03-26T11:17:46.744Z,6.50
2023-03-26T11:21:19.834Z,6.57
2023-03-26T11:24:58.641Z,6.47
2023-03-26T11:28:28.081Z,7.25
2023-03-26T11:31:54.958Z,5.90
2023-03-26T11:35:19.249Z,5.68
2023-03-26T11:38:48.524Z,6.18
2023-03-26T11:42:22.146Z,5.13
2023-03-26T11:45:32.248Z,6.07
2023-03-26T11:48:44.696Z,6.47
2023-03-26T11:51:50.503Z,6.75
2023-03-26T11:54:59.916Z,5.50
2023-03-26T11:58:12.590Z,6.07
2023-03-26T12:01:30.701Z,5.55
2023-03-26T12:04:41.963Z,6.05
2023-03-26T12:07:54.472Z,6.40
2023-03-26T12:11:11.051Z,5.60
2023-03-26T12:14:24.607Z,5.32
2023-03-26T12:17:36.073Z,4.68
2023-03-26T12:20:43.114Z,4.85
2023-03-26T12:24:05.077Z,5.18
2023-03-26T12:27:22.022Z,4.03
2023-03-26T12:30:31.417Z,3.92
2023-03-26T12:33:39.287Z,6.43
2023-03-26T12:36:55.929Z,4.05
2023-03-26T12:40:30.378Z,3.80
2023-03-26T12:44:50.880Z,4.18
2023-03-26T12:47:58.583Z,4.82
2023-03-26T12:51:43.507Z,3.70
2023-03-26T12:55:27.161Z,4.70
2023-03-26T12:59:05.655Z,5.55
2023-03-26T13:02:46.852Z,4.30
2023-03-26T13:06:19.605Z,5.45
2023-03-26T13:10:02.184Z,4.35
2023-03-26T13:13:28.707Z,4.50
2023-03-26T13:16:58.059Z,4.90
2023-03-26T13:20:12.641Z,4.80
2023-03-26T13:23:36.537Z,4.43
2023-03-26T13:26:50.050Z,4.45
2023-03-26T13:30:14.872Z,5.55
2023-03-26T13:33:39.422Z,5.30
2023-03-26T13:36:53.795Z,5.20
2023-03-26T13:40:22.558Z,4.38
2023-03-26T13:43:45.904Z,4.65
2023-03-26T13:47:03.148Z,4.53
2023-03-26T13:50:22.345Z,5.20
2023-03-26T13:53:58.700Z,4.82
2023-03-26T13:57:12.837Z,4.00
2023-03-26T14:00:33.283Z,4.45
2023-03-26T14:04:03.640Z,4.13
2023-03-26T14:07:26.607Z,4.00
2023-03-26T14:10:43.679Z,3.78
2023-03-26T14:14:04.419Z,4.03
2023-03-26T14:17:28.429Z,4.30
2023-03-26T14:20:51.770Z,3.65
2023-03-26T14:24:35.103Z,4.65
2023-03-26T14:28:04.900Z,4.30
2023-03-26T14:31:10.396Z,4.22
2023-03-26T14:34:42.939Z,10.27
2023-03-26T14:38:30.176Z,5.30
2023-03-26T14:42:01.692Z,3.88
2023-03-26T14:45:48.112Z,4.17
2023-03-26T14:49:05.558Z,3.70
2023-03-26T14:52:32.037Z,3.95
2023-03-26T14:55:58.068Z,3.55
2023-03-26T14:59:32.242Z,4.20
2023-03-26T15:03:11.314Z,4.13
2023-03-26T15:06:38.310Z,3.92
2023-03-26T15:10:28.105Z,4.30
2023-03-26T15:14:11.294Z,4.47
2023-03-26T15:17:44.082Z,3.50
2023-03-26T15:20:49.644Z,3.95
2023-03-26T15:24:43.594Z,6.05
2023-03-26T15:28:10.806Z,5.15
2023-03-26T15:31:53.392Z,5.05
2023-03-26T15:35:02.998Z,5.82
2023-03-26T15:38:31.825Z,6.35
2023-03-26T15:42:07.413Z,7.40
2023-03-26T15:45:35.673Z,6.60
2023-03-26T15:48:55.839Z,5.80
2023-03-26T15:52:08.464Z,6.97
2023-03-26T15:55:16.705Z,6.88
2023-03-26T15:58:28.899Z,5.75
2023-03-26T16:02:05.139Z,6.53
2023-03-26T16:05:23.354Z,6.80
2023-03-26T16:08:54.166Z,7.90
2023-03-26T16:12:04.301Z,7.72
2023-03-26T16:15:29.904Z,8.00
2023-03-26T16:18:37.357Z,8.18
2023-03-26T16:21:54.800Z,8.98
2023-03-26T16:25:30.669Z,8.23
2023-03-26T16:28:57.817Z,4.13
2023-03-26T16:32:29.170Z,4.45
2023-03-26T16:36:03.518Z,3.65
2023-03-26T16:39:11.855Z,4.85
2023-03-26T16:42:20.020Z,4.80
2023-03-26T16:45:37.443Z,3.47
2023-03-26T16:49:14.777Z,3.40
2023-03-26T16:52:34.983Z,3.28
2023-03-26T16:55:47.348Z,3.20
2023-03-26T16:59:00.611Z,3.45
2023-03-26T17:02:24.973Z,4.13
2023-03-26T17:05:36.905Z,3.30
2023-03-26T17:08:53.516Z,3.70
2023-03-26T17:12:01.727Z,4.03
2023-03-26T17:15:20.152Z,5.13
2023-03-26T17:18:26.053Z,4.07
2023-03-26T17:21:45.803Z,3.67
2023-03-26T17:25:24.881Z,5.65
2023-03-26T17:29:05.165Z,6.00
2023-03-26T17:32:15.394Z,4.22
2023-03-26T17:35:39.305Z,7.68
2023-03-26T17:38:47.497Z,5.55
2023-03-26T17:42:01.266Z,4.15
2023-03-26T17:45:17.940Z,4.07
2023-03-26T17:48:26.399Z,4.03
2023-03-26T17:51:59.706Z,4.00
2023-03-26T17:55:11.003Z,5.05
2023-03-26T17:58:39.778Z,4.80
2023-03-26T18:01:48.733Z,2.33
2023-03-26T18:04:55.963Z,2.22
2023-03-26T18:08:26.360Z,2.75
2023-03-26T18:11:43.447Z,4.72
2023-03-26T18:14:48.778Z,2.55
2023-03-26T18:18:07.997Z,2.33
2023-03-26T18:21:27.312Z,3.00
2023-03-26T18:24:37.986Z,2.50
2023-03-26T18:27:43.795Z,1.50
2023-03-26T18:30:49.662Z,1.77
2023-03-26T18:33:59.435Z,1.30
2023-03-26T18:37:19.795Z,1.45
2023-03-26T18:40:40.535Z,1.40
2023-03-26T18:43:46.161Z,1.42
2023-03-26T18:46:55.438Z,1.48
2023-03-26T18:50:01.141Z,1.70
2023-03-26T18:53:30.026Z,2.10
2023-03-26T18:56:37.563Z,1.80
2023-03-26T18:59:45.711Z,1.90
2023-03-26T19:03:07.464Z,2.13
2023-03-26T19:06:15.331Z,2.22
2023-03-26T19:09:31.030Z,1.90
2023-03-26T19:12:38.982Z,2.38
2023-03-26T19:15:46.910Z,2.42
2023-03-26T19:18:53.059Z,2.20
2023-03-26T19:21:59.622Z,2.47
2023-03-26T19:25:06.030Z,2.72
2023-03-26T19:28:19.035Z,2.63
2023-03-26T19:31:27.416Z,3.40
2023-03-26T19:34:38.754Z,3.10
2023-03-26T19:37:54.579Z,3.90
2023-03-26T19:41:00.087Z,4.15
2023-03-26T19:44:25.134Z,4.13
2023-03-26T19:47:49.968Z,4.90
2023-03-26T19:51:05.656Z,4.32
2023-03-26T19:54:17.351Z,4.20
2023-03-26T19:57:23.817Z,4.30
2023-03-26T20:00:29.251Z,5.40
2023-03-26T20:03:43.395Z,5.50
2023-03-26T20:06:49.698Z,5.68
2023-03-26T20:09:55.229Z,4.97
2023-03-26T20:13:01.355Z,5.63
2023-03-26T20:16:16.204Z,5.57
2023-03-26T20:19:25.380Z,5.57
2023-03-26T20:22:31.517Z,6.13
2023-03-26T20:25:46.647Z,6.50
2023-03-26T20:28:53.456Z,6.38
2023-03-26T20:31:59.428Z,6.68
2023-03-26T20:35:35.583Z,7.13
2023-03-26T20:38:44.129Z,7.80
2023-03-26T20:41:50.276Z,8.15
2023-03-26T20:44:56.792Z,7.95
2023-03-26T20:48:02.979Z,8.07
2023-03-26T20:51:13.002Z,7.20
2023-03-26T20:54:22.024Z,7.65
2023-03-26T20:57:27.574Z,9.00
2023-03-26T21:00:33.403Z,8.35
